Time;durP1;ratioP1;P1;durP2;ratioP2;P2;SDS_P1;SDS_P2;PMS_P1;PMS_P2;Temp;Humidity;BMP_temperature;BMP_pressure;BME280_temperature;BME280_humidity;BME280_pressure;Samples;Min_cycle;Max_cycle;Signal;HPM_P1;HPM_P2
2021/08/01 00:01:23;;;;;;;3.37;3.00;;;;;;;;;;5072891;28;20172;-79
2021/08/01 00:03:50;;;;;;;3.50;2.63;;;;;;;;;;5063742;28;20535;-78
2021/08/01 00:06:16;;;;;;;2.80;2.60;;;;;;;;;;5068796;28;20201;-78
2021/08/01 00:08:43;;;;;;;2.70;2.50;;;;;;;;;;5053284;28;20541;-79
2021/08/01 00:11:09;;;;;;;5.73;3.60;;;;;;;;;;5072247;28;20298;-78
2021/08/01 00:13:35;;;;;;;3.43;2.63;;;;;;;;;;5053916;28;20184;-78
2021/08/01 00:16:01;;;;;;;3.27;2.80;;;;;;;;;;5072080;28;20176;-78
2021/08/01 00:18:27;;;;;;;3.23;2.93;;;;;;;;;;5072605;28;20245;-79
2021/08/01 00:20:53;;;;;;;2.63;2.43;;;;;;;;;;5053949;28;20744;-78
2021/08/01 00:23:19;;;;;;;2.90;2.60;;;;;;;;;;5054109;28;20526;-78
2021/08/01 00:25:45;;;;;;;4.53;3.03;;;;;;;;;;5054065;28;20176;-78
2021/08/01 00:28:11;;;;;;;3.10;2.80;;;;;;;;;;5071710;28;20635;-78
2021/08/01 00:30:37;;;;;;;2.87;2.53;;;;;;;;;;5054395;28;20173;-78
2021/08/01 00:33:03;;;;;;;3.57;2.93;;;;;;;;;;5054412;28;20187;-78
2021/08/01 00:35:29;;;;;;;3.20;2.90;;;;;;;;;;5071675;28;20181;-78
2021/08/01 00:37:55;;;;;;;3.57;3.27;;;;;;;;;;5071848;28;20204;-78
2021/08/01 00:40:22;;;;;;;3.00;2.80;;;;;;;;;;5053795;28;20168;-78
2021/08/01 00:42:48;;;;;;;2.60;2.40;;;;;;;;;;5051636;28;20196;-78
2021/08/01 00:45:14;;;;;;;2.90;2.70;;;;;;;;;;5053453;28;20176;-78
2021/08/01 00:47:42;;;;;;;3.40;2.80;;;;;;;;;;5053628;28;20253;-78
2021/08/01 00:50:09;;;;;;;2.70;2.50;;;;;;;;;;5053635;28;20204;-78
2021/08/01 00:52:36;;;;;;;3.37;3.07;;;;;;;;;;5053340;28;20238;-78
2021/08/01 00:55:03;;;;;;;3.10;2.83;;;;;;;;;;5053716;28;20191;-78
2021/08/01 00:57:29;;;;;;;2.80;2.60;;;;;;;;;;5052855;28;20254;-78
2021/08/01 00:59:55;;;;;;;3.03;2.77;;;;;;;;;;5067786;28;20266;-78
2021/08/01 01:02:25;;;;;;;3.17;2.97;;;;;;;;;;5053483;28;20207;-78
2021/08/01 01:04:55;;;;;;;3.00;2.70;;;;;;;;;;5053481;28;20623;-78
2021/08/01 01:07:30;;;;;;;2.83;2.63;;;;;;;;;;5054066;28;20622;-79
2021/08/01 01:10:04;;;;;;;3.10;2.70;;;;;;;;;;5053463;28;20635;-78
2021/08/01 01:12:50;;;;;;;3.00;2.80;;;;;;;;;;5054886;28;20252;-78
2021/08/01 01:15:21;;;;;;;2.93;2.70;;;;;;;;;;5057987;28;20195;-78
2021/08/01 01:17:48;;;;;;;3.90;2.60;;;;;;;;;;5054598;28;20203;-79
2021/08/01 01:20:29;;;;;;;2.63;2.43;;;;;;;;;;5053010;28;20659;-78
2021/08/01 01:23:09;;;;;;;3.23;2.30;;;;;;;;;;5052043;28;20623;-78
2021/08/01 01:25:40;;;;;;;3.43;2.73;;;;;;;;;;5065761;28;20211;-78
2021/08/01 01:28:10;;;;;;;2.67;2.47;;;;;;;;;;5064852;28;20286;-78
2021/08/01 01:30:40;;;;;;;2.63;2.40;;;;;;;;;;5065790;28;20164;-78
2021/08/01 01:33:10;;;;;;;2.90;2.60;;;;;;;;;;5067461;28;20177;-78
2021/08/01 01:35:38;;;;;;;2.83;2.60;;;;;;;;;;5067521;28;20195;-79
2021/08/01 01:38:05;;;;;;;2.90;2.50;;;;;;;;;;5066943;28;20223;-78
2021/08/01 01:40:31;;;;;;;4.00;2.77;;;;;;;;;;5068803;28;20195;-78
2021/08/01 01:42:58;;;;;;;2.87;2.67;;;;;;;;;;5066116;28;20189;-78
2021/08/01 01:45:24;;;;;;;2.77;2.57;;;;;;;;;;5046321;28;20178;-79
2021/08/01 01:47:51;;;;;;;2.40;2.20;;;;;;;;;;5051620;28;20181;-79
2021/08/01 01:50:17;;;;;;;2.70;2.50;;;;;;;;;;5054447;28;20194;-80
2021/08/01 01:52:47;;;;;;;2.93;2.73;;;;;;;;;;5055602;28;20173;-79
2021/08/01 01:55:14;;;;;;;3.00;2.80;;;;;;;;;;5055839;28;20185;-79
2021/08/01 01:57:40;;;;;;;3.10;2.60;;;;;;;;;;5073227;28;20235;-79
2021/08/01 02:00:06;;;;;;;3.53;2.47;;;;;;;;;;5055094;28;20168;-79
2021/08/01 02:02:32;;;;;;;3.93;2.50;;;;;;;;;;5054310;28;20181;-79
2021/08/01 02:04:58;;;;;;;2.70;2.50;;;;;;;;;;5072566;28;20175;-79
2021/08/01 02:07:24;;;;;;;5.93;3.00;;;;;;;;;;5054061;28;20248;-80
2021/08/01 02:10:02;;;;;;;3.47;3.17;;;;;;;;;;5053845;28;20407;-79
2021/08/01 02:12:36;;;;;;;3.23;2.93;;;;;;;;;;5054493;28;20213;-79
2021/08/01 02:15:02;;;;;;;2.73;2.53;;;;;;;;;;5034356;28;20180;-79
2021/08/01 02:17:34;;;;;;;3.57;3.23;;;;;;;;;;5047804;28;20205;-79
2021/08/01 02:20:02;;;;;;;2.97;2.60;;;;;;;;;;5053605;28;20648;-79
2021/08/01 02:22:29;;;;;;;2.87;2.67;;;;;;;;;;5055790;28;20196;-79
2021/08/01 02:24:56;;;;;;;3.77;2.80;;;;;;;;;;5057691;28;20710;-79
2021/08/01 02:27:22;;;;;;;3.13;2.80;;;;;;;;;;5057656;28;20242;-79
2021/08/01 02:29:49;;;;;;;3.03;2.73;;;;;;;;;;5057707;28;20342;-79
2021/08/01 02:32:17;;;;;;;3.30;3.00;;;;;;;;;;5075150;28;20188;-79
2021/08/01 02:34:43;;;;;;;3.20;2.90;;;;;;;;;;5056335;28;20183;-79
2021/08/01 02:37:11;;;;;;;3.20;2.90;;;;;;;;;;5056858;28;20192;-79
2021/08/01 02:39:37;;;;;;;3.07;2.77;;;;;;;;;;5056695;28;20184;-79
2021/08/01 02:42:03;;;;;;;3.17;2.90;;;;;;;;;;5053419;28;20177;-79
2021/08/01 02:44:32;;;;;;;3.10;2.90;;;;;;;;;;5036603;28;20173;-79
2021/08/01 02:46:59;;;;;;;4.90;3.00;;;;;;;;;;5037232;28;20272;-78
2021/08/01 02:49:31;;;;;;;4.57;2.83;;;;;;;;;;5055096;28;20181;-78
2021/08/01 02:52:00;;;;;;;4.27;2.83;;;;;;;;;;5056220;28;20218;-79
2021/08/01 02:54:27;;;;;;;3.57;3.27;;;;;;;;;;5056061;28;20536;-79
2021/08/01 02:56:57;;;;;;;3.87;3.13;;;;;;;;;;5074268;28;20273;-79
2021/08/01 02:59:25;;;;;;;4.83;3.30;;;;;;;;;;5055902;28;20200;-78
2021/08/01 03:01:54;;;;;;;3.43;3.13;;;;;;;;;;5055787;28;20575;-78
2021/08/01 03:04:21;;;;;;;4.30;3.73;;;;;;;;;;5054768;28;20181;-78
2021/08/01 03:06:47;;;;;;;3.20;2.90;;;;;;;;;;5055457;28;20237;-78
2021/08/01 03:09:14;;;;;;;3.57;3.27;;;;;;;;;;5055341;28;20181;-79
2021/08/01 03:11:40;;;;;;;5.80;3.03;;;;;;;;;;5073865;28;20200;-78
2021/08/01 03:14:06;;;;;;;3.30;3.00;;;;;;;;;;5074430;28;20622;-78
2021/08/01 03:16:32;;;;;;;3.20;3.00;;;;;;;;;;5071016;28;20299;-78
2021/08/01 03:18:58;;;;;;;3.40;3.10;;;;;;;;;;5055336;28;20197;-78
2021/08/01 03:21:24;;;;;;;4.40;3.50;;;;;;;;;;5054145;28;20177;-79
2021/08/01 03:23:51;;;;;;;3.33;3.03;;;;;;;;;;5071917;28;20173;-79
2021/08/01 03:26:17;;;;;;;4.27;3.70;;;;;;;;;;5072699;28;20179;-78
2021/08/01 03:28:43;;;;;;;3.70;3.40;;;;;;;;;;5073111;28;20210;-78
2021/08/01 03:31:09;;;;;;;4.70;3.13;;;;;;;;;;5055127;28;20792;-78
2021/08/01 03:33:35;;;;;;;3.30;3.00;;;;;;;;;;5072456;28;20183;-78
2021/08/01 03:36:01;;;;;;;3.57;3.27;;;;;;;;;;5054566;28;20276;-78
2021/08/01 03:38:27;;;;;;;3.67;3.33;;;;;;;;;;5055095;28;20238;-78
2021/08/01 03:40:53;;;;;;;3.60;3.30;;;;;;;;;;5072569;28;20168;-78
2021/08/01 03:43:19;;;;;;;3.93;3.50;;;;;;;;;;5049373;28;20207;-78
2021/08/01 03:45:45;;;;;;;4.53;3.60;;;;;;;;;;5054659;28;20177;-78
2021/08/01 03:48:11;;;;;;;6.00;3.27;;;;;;;;;;5054685;28;20195;-78
2021/08/01 03:50:37;;;;;;;4.23;3.83;;;;;;;;;;5054302;28;20193;-79
2021/08/01 03:53:04;;;;;;;3.87;3.30;;;;;;;;;;5054671;28;20179;-79
2021/08/01 03:55:30;;;;;;;3.53;3.10;;;;;;;;;;5072436;28;20283;-78
2021/08/01 03:57:56;;;;;;;3.50;2.90;;;;;;;;;;5054621;28;20266;-78
2021/08/01 04:00:22;;;;;;;3.27;3.00;;;;;;;;;;5054827;28;20177;-78
2021/08/01 04:02:48;;;;;;;3.20;2.90;;;;;;;;;;5071884;28;20173;-78
2021/08/01 04:05:14;;;;;;;4.03;3.40;;;;;;;;;;5053831;28;20172;-78
2021/08/01 04:07:40;;;;;;;3.40;3.10;;;;;;;;;;5054024;28;20215;-78
2021/08/01 04:10:06;;;;;;;3.60;3.30;;;;;;;;;;5053933;28;20172;-79
2021/08/01 04:12:32;;;;;;;3.60;3.30;;;;;;;;;;5054277;28;20180;-79
2021/08/01 04:14:58;;;;;;;3.93;3.47;;;;;;;;;;5054435;28;20237;-78
2021/08/01 04:17:24;;;;;;;3.07;2.80;;;;;;;;;;5072240;28;20214;-78
2021/08/01 04:19:51;;;;;;;3.40;3.10;;;;;;;;;;5053623;28;20693;-78
2021/08/01 04:22:17;;;;;;;4.03;2.80;;;;;;;;;;5053840;28;20172;-78
2021/08/01 04:24:43;;;;;;;4.00;3.30;;;;;;;;;;5054230;28;20188;-78
2021/08/01 04:27:10;;;;;;;4.83;2.80;;;;;;;;;;5054159;28;20183;-78
2021/08/01 04:29:36;;;;;;;3.33;2.83;;;;;;;;;;5053940;28;20184;-79
2021/08/01 04:32:02;;;;;;;4.60;3.40;;;;;;;;;;5051021;28;20611;-78
2021/08/01 04:34:28;;;;;;;4.53;3.50;;;;;;;;;;5054035;28;20339;-78
2021/08/01 04:36:54;;;;;;;3.00;2.80;;;;;;;;;;5087643;28;20638;-79
2021/08/01 04:39:20;;;;;;;4.43;2.97;;;;;;;;;;5053470;28;20205;-78
2021/08/01 04:41:46;;;;;;;3.53;3.13;;;;;;;;;;5053980;28;20179;-79
2021/08/01 04:44:12;;;;;;;3.20;2.80;;;;;;;;;;5069074;28;20196;-78
2021/08/01 04:46:39;;;;;;;3.10;2.80;;;;;;;;;;5051880;28;20178;-79
2021/08/01 04:49:05;;;;;;;3.80;3.00;;;;;;;;;;5071515;28;20192;-79
2021/08/01 04:51:31;;;;;;;4.67;3.50;;;;;;;;;;5053762;28;20234;-78
2021/08/01 04:53:57;;;;;;;3.17;2.87;;;;;;;;;;5046452;28;20187;-79
2021/08/01 04:56:24;;;;;;;3.37;3.07;;;;;;;;;;5053010;28;20180;-79
2021/08/01 04:58:50;;;;;;;3.88;3.20;;;;;;;;;;5071131;28;20505;-79
2021/08/01 05:01:19;;;;;;;3.33;3.03;;;;;;;;;;5053335;28;20604;-79
2021/08/01 05:03:45;;;;;;;3.40;2.83;;;;;;;;;;5070908;28;20183;-79
2021/08/01 05:06:11;;;;;;;2.63;2.43;;;;;;;;;;5052540;28;20199;-79
2021/08/01 05:08:38;;;;;;;4.13;3.10;;;;;;;;;;5087277;28;20653;-78
2021/08/01 05:11:04;;;;;;;2.93;2.73;;;;;;;;;;5052971;28;20211;-78
2021/08/01 05:13:45;;;;;;;3.13;2.83;;;;;;;;;;5072079;28;20184;-78
2021/08/01 05:16:18;;;;;;;3.57;3.27;;;;;;;;;;5053696;28;20588;-79
2021/08/01 05:18:44;;;;;;;2.93;2.73;;;;;;;;;;5064192;28;20570;-79
2021/08/01 05:21:11;;;;;;;3.37;3.07;;;;;;;;;;5054159;28;20177;-79
2021/08/01 05:23:37;;;;;;;3.20;3.00;;;;;;;;;;5072559;28;20180;-79
2021/08/01 05:26:03;;;;;;;3.23;2.93;;;;;;;;;;5053740;28;20875;-79
2021/08/01 05:28:30;;;;;;;3.50;3.07;;;;;;;;;;5053361;28;20584;-79
2021/08/01 05:30:56;;;;;;;3.10;2.80;;;;;;;;;;5049790;28;20247;-78
2021/08/01 05:33:22;;;;;;;3.87;2.97;;;;;;;;;;5053386;28;20177;-79
2021/08/01 05:35:48;;;;;;;3.87;2.70;;;;;;;;;;5071165;28;20180;-78
2021/08/01 05:38:14;;;;;;;3.10;2.83;;;;;;;;;;5070995;28;20269;-78
2021/08/01 05:40:43;;;;;;;5.33;3.50;;;;;;;;;;5053286;28;20207;-78
2021/08/01 05:43:09;;;;;;;3.07;2.70;;;;;;;;;;5053500;28;20184;-78
2021/08/01 05:45:35;;;;;;;3.60;3.10;;;;;;;;;;5070826;28;20718;-78
2021/08/01 05:48:01;;;;;;;3.83;2.90;;;;;;;;;;5053128;28;20185;-78
2021/08/01 05:50:27;;;;;;;3.33;3.03;;;;;;;;;;5052547;28;20172;-78
2021/08/01 05:52:53;;;;;;;4.53;3.07;;;;;;;;;;5053223;28;20262;-78
2021/08/01 05:55:19;;;;;;;4.33;3.60;;;;;;;;;;5052729;28;20662;-78
2021/08/01 05:57:45;;;;;;;3.63;3.00;;;;;;;;;;5070577;28;20239;-78
2021/08/01 06:00:12;;;;;;;4.03;3.03;;;;;;;;;;5070737;28;20251;-78
2021/08/01 06:02:38;;;;;;;4.77;3.10;;;;;;;;;;5052634;28;20176;-78
2021/08/01 06:05:04;;;;;;;3.10;2.80;;;;;;;;;;5052876;28;20359;-79
2021/08/01 06:07:30;;;;;;;5.07;3.00;;;;;;;;;;5071264;28;20263;-78
2021/08/01 06:09:56;;;;;;;4.37;3.17;;;;;;;;;;5052577;28;20177;-78
2021/08/01 06:12:22;;;;;;;3.20;2.90;;;;;;;;;;5052571;28;20290;-78
2021/08/01 06:14:48;;;;;;;3.20;2.63;;;;;;;;;;5071007;28;20165;-78
2021/08/01 06:17:15;;;;;;;5.17;3.33;;;;;;;;;;5052224;28;20184;-78
2021/08/01 06:19:41;;;;;;;5.53;3.50;;;;;;;;;;5050143;28;20204;-80
2021/08/01 06:22:07;;;;;;;4.30;3.50;;;;;;;;;;5043653;28;20321;-79
2021/08/01 06:24:33;;;;;;;4.63;3.03;;;;;;;;;;5052804;28;20275;-78
2021/08/01 06:26:59;;;;;;;4.07;3.23;;;;;;;;;;5065030;28;20200;-78
2021/08/01 06:29:25;;;;;;;3.90;3.00;;;;;;;;;;5052455;28;20409;-79
2021/08/01 06:31:53;;;;;;;3.70;3.27;;;;;;;;;;5070573;28;20183;-79
2021/08/01 06:34:19;;;;;;;3.30;3.00;;;;;;;;;;5052150;28;20230;-79
2021/08/01 06:36:45;;;;;;;6.90;3.93;;;;;;;;;;5052806;28;20185;-79
2021/08/01 06:39:11;;;;;;;4.20;3.40;;;;;;;;;;5052474;28;20270;-79
2021/08/01 06:41:37;;;;;;;4.90;2.83;;;;;;;;;;5070438;28;20839;-78
2021/08/01 06:44:03;;;;;;;4.10;2.90;;;;;;;;;;5070034;28;20298;-78
2021/08/01 06:46:29;;;;;;;5.13;3.77;;;;;;;;;;5052461;28;20177;-79
2021/08/01 06:48:55;;;;;;;5.70;3.63;;;;;;;;;;5052205;28;20208;-78
2021/08/01 06:51:21;;;;;;;8.93;4.63;;;;;;;;;;5050691;28;20273;-79
2021/08/01 06:53:47;;;;;;;6.40;3.93;;;;;;;;;;5049325;28;20326;-79
2021/08/01 06:56:13;;;;;;;5.47;4.27;;;;;;;;;;5052253;28;20177;-79
2021/08/01 06:58:39;;;;;;;10.33;5.47;;;;;;;;;;5071350;28;20344;-78
2021/08/01 07:01:05;;;;;;;7.20;3.97;;;;;;;;;;5072387;28;20184;-79
2021/08/01 07:03:31;;;;;;;5.80;3.30;;;;;;;;;;5072495;28;20184;-79
2021/08/01 07:05:57;;;;;;;3.87;3.00;;;;;;;;;;5071539;28;20233;-79
2021/08/01 07:08:24;;;;;;;4.37;3.50;;;;;;;;;;5074469;28;20260;-79
2021/08/01 07:10:50;;;;;;;7.77;4.27;;;;;;;;;;5075564;28;20190;-79
2021/08/01 07:13:16;;;;;;;7.60;3.93;;;;;;;;;;5093968;28;20752;-79
2021/08/01 07:15:42;;;;;;;6.23;3.57;;;;;;;;;;5075242;28;20264;-79
2021/08/01 07:18:08;;;;;;;9.23;6.70;;;;;;;;;;5076177;28;20188;-79
2021/08/01 07:20:35;;;;;;;8.60;5.83;;;;;;;;;;5076094;28;20550;-79
2021/08/01 07:23:01;;;;;;;11.37;5.63;;;;;;;;;;5095311;28;20176;-78
2021/08/01 07:25:27;;;;;;;10.00;5.43;;;;;;;;;;5093729;28;20275;-78
2021/08/01 07:27:53;;;;;;;6.27;5.53;;;;;;;;;;5093838;28;20584;-79
2021/08/01 07:30:20;;;;;;;10.27;5.40;;;;;;;;;;5076825;28;20191;-78
2021/08/01 07:32:46;;;;;;;8.17;5.43;;;;;;;;;;5094406;28;20183;-78
2021/08/01 07:35:12;;;;;;;5.67;4.57;;;;;;;;;;5094883;28;20168;-78
2021/08/01 07:37:38;;;;;;;7.40;5.30;;;;;;;;;;5076725;28;20176;-78
2021/08/01 07:40:05;;;;;;;9.87;4.53;;;;;;;;;;5076253;28;20164;-78
2021/08/01 07:42:31;;;;;;;8.20;5.13;;;;;;;;;;5094374;28;20160;-78
2021/08/01 07:45:02;;;;;;;7.87;4.97;;;;;;;;;;5094146;28;20164;-79
2021/08/01 07:47:30;;;;;;;6.97;4.50;;;;;;;;;;5075475;28;20237;-79
2021/08/01 07:49:56;;;;;;;6.93;5.00;;;;;;;;;;5075742;28;20187;-79
2021/08/01 07:52:22;;;;;;;7.97;4.43;;;;;;;;;;5076702;28;20198;-79
2021/08/01 07:54:48;;;;;;;6.37;3.90;;;;;;;;;;5076289;28;20195;-79
2021/08/01 07:57:30;;;;;;;6.13;3.83;;;;;;;;;;5072955;28;20236;-79
2021/08/01 07:59:57;;;;;;;9.53;6.13;;;;;;;;;;5070732;28;20207;-79
2021/08/01 08:02:25;;;;;;;6.60;4.20;;;;;;;;;;5074846;28;20232;-79
2021/08/01 08:04:51;;;;;;;7.13;4.10;;;;;;;;;;5074499;28;20177;-79
2021/08/01 08:07:18;;;;;;;8.00;4.13;;;;;;;;;;5070993;28;20201;-80
2021/08/01 08:09:44;;;;;;;6.53;4.10;;;;;;;;;;5073542;28;20177;-79
2021/08/01 08:12:10;;;;;;;7.23;4.20;;;;;;;;;;5075001;28;20199;-82
2021/08/01 08:14:37;;;;;;;8.87;4.13;;;;;;;;;;5073787;28;20208;-83
2021/08/01 08:17:03;;;;;;;6.83;4.43;;;;;;;;;;5073544;28;20169;-83
2021/08/01 08:19:31;;;;;;;5.73;4.07;;;;;;;;;;5106898;28;20695;-80
2021/08/01 08:21:57;;;;;;;7.57;4.13;;;;;;;;;;5073820;28;20156;-80
2021/08/01 08:24:24;;;;;;;7.33;4.00;;;;;;;;;;5073169;28;20252;-79
2021/08/01 08:26:50;;;;;;;6.40;4.40;;;;;;;;;;5101586;28;20182;-79
2021/08/01 08:29:16;;;;;;;6.53;3.73;;;;;;;;;;5071427;28;20638;-79
2021/08/01 08:31:49;;;;;;;8.83;5.17;;;;;;;;;;5105143;28;20191;-79
2021/08/01 08:34:15;;;;;;;6.90;4.37;;;;;;;;;;5066593;28;20586;-79
2021/08/01 08:36:42;;;;;;;8.17;4.00;;;;;;;;;;5072422;28;20192;-79
2021/08/01 08:39:08;;;;;;;11.93;4.83;;;;;;;;;;5072504;28;20270;-79
2021/08/01 08:41:34;;;;;;;8.53;4.23;;;;;;;;;;5071649;28;20176;-79
2021/08/01 08:44:00;;;;;;;11.73;5.17;;;;;;;;;;5072585;28;20191;-80
2021/08/01 08:46:27;;;;;;;5.17;4.10;;;;;;;;;;5073576;28;20181;-79
2021/08/01 08:48:54;;;;;;;6.03;4.97;;;;;;;;;;5073365;28;20172;-79
2021/08/01 08:51:25;;;;;;;8.73;4.70;;;;;;;;;;5071528;28;20537;-80
2021/08/01 08:53:53;;;;;;;7.53;5.10;;;;;;;;;;5064740;28;20173;-79
2021/08/01 08:56:19;;;;;;;10.93;5.20;;;;;;;;;;5073881;28;20180;-79
2021/08/01 08:58:47;;;;;;;9.97;5.43;;;;;;;;;;5060908;28;20216;-79
2021/08/01 09:01:13;;;;;;;6.57;5.00;;;;;;;;;;5072800;28;20255;-79
2021/08/01 09:03:39;;;;;;;7.40;4.97;;;;;;;;;;5104846;28;20180;-78
2021/08/01 09:06:05;;;;;;;8.30;5.13;;;;;;;;;;5070139;28;20393;-79
2021/08/01 09:08:31;;;;;;;10.80;4.30;;;;;;;;;;5070286;28;20191;-79
2021/08/01 09:10:58;;;;;;;7.37;5.20;;;;;;;;;;5069676;28;20220;-80
2021/08/01 09:13:43;;;;;;;5.23;4.73;;;;;;;;;;5067301;28;20718;-79
2021/08/01 09:16:09;;;;;;;4.63;3.90;;;;;;;;;;5071220;28;20185;-80
2021/08/01 09:18:35;;;;;;;10.30;4.37;;;;;;;;;;5072308;28;20211;-80
2021/08/01 09:21:01;;;;;;;9.43;4.20;;;;;;;;;;5069554;28;20183;-79
2021/08/01 09:23:27;;;;;;;8.53;4.23;;;;;;;;;;5072738;28;20545;-79
2021/08/01 09:26:01;;;;;;;8.67;4.83;;;;;;;;;;5070953;28;20188;-79
2021/08/01 09:28:28;;;;;;;8.53;4.43;;;;;;;;;;5071370;28;20169;-79
2021/08/01 09:31:04;;;;;;;6.80;4.63;;;;;;;;;;5068029;28;20180;-79
2021/08/01 09:33:33;;;;;;;7.13;4.63;;;;;;;;;;5072130;28;20187;-79
2021/08/01 09:36:06;;;;;;;7.67;4.27;;;;;;;;;;5069033;28;20181;-78
2021/08/01 09:38:51;;;;;;;6.60;3.83;;;;;;;;;;5066651;28;20261;-79
2021/08/01 09:41:19;;;;;;;6.27;3.57;;;;;;;;;;5071947;28;20176;-79
2021/08/01 09:43:55;;;;;;;6.73;4.33;;;;;;;;;;5070326;28;20189;-78
2021/08/01 09:46:22;;;;;;;7.57;5.30;;;;;;;;;;5104374;28;20218;-79
2021/08/01 09:49:12;;;;;;;7.60;4.23;;;;;;;;;;5071168;28;20515;-79
2021/08/01 09:51:42;;;;;;;6.30;4.33;;;;;;;;;;5062309;28;20189;-79
2021/08/01 09:54:08;;;;;;;12.00;4.80;;;;;;;;;;5057182;28;20184;-79
2021/08/01 09:56:34;;;;;;;6.87;4.43;;;;;;;;;;5072712;28;20191;-78
2021/08/01 09:59:00;;;;;;;5.53;4.10;;;;;;;;;;5072184;28;20651;-79
2021/08/01 10:01:27;;;;;;;6.27;4.50;;;;;;;;;;5072378;28;20631;-79
2021/08/01 10:03:53;;;;;;;5.57;4.13;;;;;;;;;;5072219;28;20207;-78
2021/08/01 10:06:20;;;;;;;7.13;5.13;;;;;;;;;;5052544;28;20219;-79
2021/08/01 10:08:47;;;;;;;6.60;4.20;;;;;;;;;;5046612;28;20180;-79
2021/08/01 10:11:18;;;;;;;8.27;4.33;;;;;;;;;;5053316;28;20267;-79
2021/08/01 10:13:45;;;;;;;6.97;5.07;;;;;;;;;;5068593;28;20199;-79
2021/08/01 10:16:11;;;;;;;6.30;4.17;;;;;;;;;;5071786;28;20221;-78
2021/08/01 10:18:41;;;;;;;8.07;5.03;;;;;;;;;;5072114;28;20251;-79
2021/08/01 10:21:08;;;;;;;5.40;4.47;;;;;;;;;;5052375;28;20184;-79
2021/08/01 10:23:41;;;;;;;5.50;4.97;;;;;;;;;;5053695;28;20185;-80
2021/08/01 10:26:08;;;;;;;8.83;6.00;;;;;;;;;;5070876;28;20187;-80
2021/08/01 10:28:35;;;;;;;6.63;4.60;;;;;;;;;;5071353;28;20169;-79
2021/08/01 10:31:03;;;;;;;9.07;4.60;;;;;;;;;;5084209;28;20410;-79
2021/08/01 10:33:35;;;;;;;7.57;4.03;;;;;;;;;;5053316;28;20191;-78
2021/08/01 10:36:04;;;;;;;6.87;4.67;;;;;;;;;;5056850;28;20165;-79
2021/08/01 10:38:31;;;;;;;7.10;4.50;;;;;;;;;;5044807;28;20204;-78
2021/08/01 10:41:01;;;;;;;5.73;4.30;;;;;;;;;;5053628;28;20947;-78
2021/08/01 10:43:30;;;;;;;6.17;3.80;;;;;;;;;;5065323;28;20292;-79
2021/08/01 10:45:56;;;;;;;7.80;4.37;;;;;;;;;;5057697;28;20516;-79
2021/08/01 10:48:24;;;;;;;5.97;3.93;;;;;;;;;;5066553;28;20188;-79
2021/08/01 10:50:50;;;;;;;5.80;3.80;;;;;;;;;;5073172;28;20482;-79
2021/08/01 10:53:20;;;;;;;6.50;3.87;;;;;;;;;;5057211;28;20185;-79
2021/08/01 10:55:46;;;;;;;6.23;3.60;;;;;;;;;;5059285;28;20184;-81
2021/08/01 10:58:13;;;;;;;6.57;4.20;;;;;;;;;;5076202;28;20220;-82
2021/08/01 11:00:58;;;;;;;6.53;3.53;;;;;;;;;;5058289;28;20624;-82
2021/08/01 11:03:24;;;;;;;4.03;3.47;;;;;;;;;;5058516;28;20211;-82
2021/08/01 11:05:51;;;;;;;4.90;3.23;;;;;;;;;;5057119;28;20196;-82
2021/08/01 11:08:17;;;;;;;9.30;3.93;;;;;;;;;;5058116;28;20177;-82
2021/08/01 11:10:43;;;;;;;4.40;3.90;;;;;;;;;;5057809;28;20263;-82
2021/08/01 11:13:25;;;;;;;5.87;3.60;;;;;;;;;;5074497;28;20184;-81
2021/08/01 11:15:51;;;;;;;3.50;3.20;;;;;;;;;;5056794;28;20185;-82
2021/08/01 11:18:34;;;;;;;5.67;4.43;;;;;;;;;;5056402;28;20204;-81
2021/08/01 11:21:03;;;;;;;6.37;3.77;;;;;;;;;;5056797;28;20174;-82
2021/08/01 11:23:45;;;;;;;4.23;3.40;;;;;;;;;;5058119;28;20637;-81
2021/08/01 11:26:13;;;;;;;6.43;4.10;;;;;;;;;;5089291;28;20759;-80
2021/08/01 11:28:41;;;;;;;4.53;3.43;;;;;;;;;;5057699;28;20209;-80
2021/08/01 11:31:08;;;;;;;6.87;4.03;;;;;;;;;;5057759;28;20185;-80
2021/08/01 11:33:35;;;;;;;8.40;4.80;;;;;;;;;;5045649;28;20188;-80
2021/08/01 11:36:13;;;;;;;5.07;4.20;;;;;;;;;;5056537;28;20280;-81
2021/08/01 11:38:39;;;;;;;8.60;4.33;;;;;;;;;;5069689;28;20198;-81
2021/08/01 11:41:05;;;;;;;4.37;3.73;;;;;;;;;;5077016;28;20170;-81
2021/08/01 11:43:32;;;;;;;4.03;3.50;;;;;;;;;;5059275;28;20209;-81
2021/08/01 11:46:03;;;;;;;4.67;3.37;;;;;;;;;;5077131;28;20574;-80
2021/08/01 11:48:29;;;;;;;4.13;3.77;;;;;;;;;;5057343;28;20184;-79
2021/08/01 11:50:58;;;;;;;4.03;3.60;;;;;;;;;;5074977;28;20260;-79
2021/08/01 11:53:27;;;;;;;4.40;3.87;;;;;;;;;;5054801;28;20206;-79
2021/08/01 11:55:59;;;;;;;8.67;4.70;;;;;;;;;;5069873;28;20196;-80
2021/08/01 11:58:26;;;;;;;5.70;4.53;;;;;;;;;;5066985;28;20224;-78
2021/08/01 12:00:53;;;;;;;6.40;4.00;;;;;;;;;;5055982;28;20185;-80
2021/08/01 12:03:24;;;;;;;6.10;4.43;;;;;;;;;;5073599;28;20207;-80
2021/08/01 12:05:52;;;;;;;4.63;4.13;;;;;;;;;;5079355;28;20225;-79
2021/08/01 12:08:37;;;;;;;5.10;3.73;;;;;;;;;;5047513;28;20574;-80
2021/08/01 12:11:06;;;;;;;5.30;3.83;;;;;;;;;;5073055;28;20237;-78
2021/08/01 12:13:32;;;;;;;6.20;3.90;;;;;;;;;;5056781;28;20195;-80
2021/08/01 12:15:58;;;;;;;5.43;4.27;;;;;;;;;;5056573;28;20189;-80
2021/08/01 12:18:27;;;;;;;4.57;4.17;;;;;;;;;;5056431;28;20235;-80
2021/08/01 12:20:53;;;;;;;5.03;4.43;;;;;;;;;;5056493;28;20642;-79
2021/08/01 12:23:35;;;;;;;4.93;4.10;;;;;;;;;;5074781;28;20314;-80
2021/08/01 12:26:01;;;;;;;7.33;5.67;;;;;;;;;;5056890;28;20278;-80
2021/08/01 12:28:40;;;;;;;6.20;4.50;;;;;;;;;;5057638;28;20267;-81
2021/08/01 12:31:06;;;;;;;5.73;4.20;;;;;;;;;;5057694;28;20176;-80
2021/08/01 12:33:32;;;;;;;5.63;4.37;;;;;;;;;;5091407;28;20173;-80
2021/08/01 12:36:07;;;;;;;7.70;6.33;;;;;;;;;;5075041;28;20319;-80
2021/08/01 12:38:33;;;;;;;7.37;5.70;;;;;;;;;;5090794;28;20204;-80
2021/08/01 12:41:11;;;;;;;6.37;4.83;;;;;;;;;;5057648;28;20211;-80
2021/08/01 12:43:37;;;;;;;6.23;4.60;;;;;;;;;;5083314;28;20176;-79
2021/08/01 12:46:15;;;;;;;8.80;5.00;;;;;;;;;;5074012;28;20623;-80
2021/08/01 12:48:41;;;;;;;5.07;4.67;;;;;;;;;;5085990;28;20534;-79
2021/08/01 12:51:07;;;;;;;8.17;5.13;;;;;;;;;;5072426;28;20176;-82
2021/08/01 12:53:33;;;;;;;11.87;5.23;;;;;;;;;;5073464;28;20172;-81
2021/08/01 12:56:00;;;;;;;5.90;4.80;;;;;;;;;;5074712;28;21091;-81
2021/08/01 12:58:30;;;;;;;10.10;5.90;;;;;;;;;;5053973;28;20220;-82
2021/08/01 13:01:05;;;;;;;5.97;5.47;;;;;;;;;;5056487;28;20195;-81
2021/08/01 13:03:36;;;;;;;6.50;5.77;;;;;;;;;;5087807;28;20179;-82
2021/08/01 13:06:03;;;;;;;5.57;5.00;;;;;;;;;;5053966;28;20173;-84
2021/08/01 13:08:46;;;;;;;7.53;5.40;;;;;;;;;;5055065;28;20193;-82
2021/08/01 13:11:13;;;;;;;6.73;5.00;;;;;;;;;;5054855;28;20176;-82
2021/08/01 13:13:52;;;;;;;5.63;4.93;;;;;;;;;;5055276;28;20211;-82
2021/08/01 13:16:18;;;;;;;5.07;4.57;;;;;;;;;;5054414;28;20275;-82
2021/08/01 13:18:44;;;;;;;5.68;5.18;;;;;;;;;;5061987;28;20552;-83
2021/08/01 13:21:17;;;;;;;8.57;6.20;;;;;;;;;;5054944;28;20179;-82
2021/08/01 13:23:45;;;;;;;5.63;5.00;;;;;;;;;;5054849;28;20629;-81
2021/08/01 13:26:31;;;;;;;5.60;4.33;;;;;;;;;;5053088;28;20484;-81
2021/08/01 13:29:02;;;;;;;7.00;4.80;;;;;;;;;;5053506;28;20522;-80
2021/08/01 13:31:41;;;;;;;7.70;4.57;;;;;;;;;;5055196;28;20169;-83
2021/08/01 13:34:10;;;;;;;4.93;4.10;;;;;;;;;;5086964;28;20635;-83
2021/08/01 13:36:45;;;;;;;5.67;4.63;;;;;;;;;;5054270;28;20192;-82
2021/08/01 13:39:12;;;;;;;5.37;4.83;;;;;;;;;;5054526;28;20211;-82
2021/08/01 13:41:39;;;;;;;6.97;4.67;;;;;;;;;;5055528;28;20182;-81
2021/08/01 13:44:15;;;;;;;4.73;4.27;;;;;;;;;;5054923;28;20281;-81
2021/08/01 13:46:42;;;;;;;8.57;4.10;;;;;;;;;;5054907;28;20181;-83
2021/08/01 13:49:09;;;;;;;5.33;4.83;;;;;;;;;;5054750;28;20547;-82
2021/08/01 13:51:43;;;;;;;5.10;4.10;;;;;;;;;;5056843;28;20189;-82
2021/08/01 13:54:11;;;;;;;4.30;3.57;;;;;;;;;;5078627;28;20200;-81
2021/08/01 13:56:37;;;;;;;6.10;4.27;;;;;;;;;;5064878;28;20235;-81
2021/08/01 13:59:03;;;;;;;5.50;5.00;;;;;;;;;;5054223;28;20236;-82
2021/08/01 14:01:30;;;;;;;5.07;4.67;;;;;;;;;;5054701;28;20178;-82
2021/08/01 14:03:56;;;;;;;6.13;4.30;;;;;;;;;;5055578;28;20194;-82
2021/08/01 14:06:31;;;;;;;4.27;3.90;;;;;;;;;;5054869;28;20202;-81
2021/08/01 14:09:00;;;;;;;5.17;4.40;;;;;;;;;;5054211;28;20674;-81
2021/08/01 14:11:30;;;;;;;5.47;4.87;;;;;;;;;;5054616;28;20285;-85
2021/08/01 14:14:00;;;;;;;5.57;4.13;;;;;;;;;;5073670;28;20190;-83
2021/08/01 14:16:26;;;;;;;5.93;4.00;;;;;;;;;;5055572;28;20426;-82
2021/08/01 14:18:55;;;;;;;6.53;4.40;;;;;;;;;;5058828;28;20203;-82
2021/08/01 14:21:22;;;;;;;5.20;4.17;;;;;;;;;;5058772;28;20175;-82
2021/08/01 14:23:48;;;;;;;8.73;4.23;;;;;;;;;;5058871;28;20179;-84
2021/08/01 14:26:15;;;;;;;5.00;3.90;;;;;;;;;;5058073;28;20190;-81
2021/08/01 14:28:44;;;;;;;5.23;4.50;;;;;;;;;;5058651;28;20199;-81
2021/08/01 14:31:13;;;;;;;4.47;4.07;;;;;;;;;;5058667;28;20234;-79
2021/08/01 14:33:40;;;;;;;5.40;4.23;;;;;;;;;;5056562;28;20500;-80
2021/08/01 14:36:06;;;;;;;6.23;4.07;;;;;;;;;;5057348;28;20176;-79
2021/08/01 14:38:33;;;;;;;3.97;3.57;;;;;;;;;;5090867;28;20215;-79
2021/08/01 14:40:59;;;;;;;3.57;3.20;;;;;;;;;;5058321;28;20196;-79
2021/08/01 14:43:26;;;;;;;4.60;3.37;;;;;;;;;;5074874;28;20182;-79
2021/08/01 14:45:52;;;;;;;6.63;3.30;;;;;;;;;;5057627;28;20692;-80
2021/08/01 14:48:21;;;;;;;16.63;3.80;;;;;;;;;;5057460;28;20199;-78